Time;durP1;ratioP1;P1;durP2;ratioP2;P2;SDS_P1;SDS_P2;PMS_P1;PMS_P2;Temp;Humidity;BMP_temperature;BMP_pressure;BME280_temperature;BME280_humidity;BME280_pressure;Samples;Min_cycle;Max_cycle;Signal;HPM_P1;HPM_P2
2022/12/22 03:25:53;;;;;;;42.17;22.98;;;8.80;99.90;;;;;;5127951;27;20131;-60
2022/12/22 03:28:24;;;;;;;43.90;23.35;;;8.80;99.90;;;;;;5117770;27;20032;-60
2022/12/22 03:31:08;;;;;;;40.85;22.65;;;8.80;99.90;;;;;;5113126;27;20039;-60
2022/12/22 03:33:34;;;;;;;41.63;22.30;;;8.80;99.90;;;;;;5127897;27;20043;-61
2022/12/22 03:35:59;;;;;;;42.28;22.48;;;8.80;99.90;;;;;;5121697;27;20031;-62
2022/12/22 03:38:26;;;;;;;43.63;23.60;;;8.80;99.90;;;;;;5108675;28;20122;-58
2022/12/22 03:40:51;;;;;;;46.25;23.17;;;8.70;99.90;;;;;;5121783;27;20092;-63
2022/12/22 03:49:08;;;;;;;45.58;23.42;;;8.80;99.90;;;;;;5129360;27;20568;-61
2022/12/22 03:51:33;;;;;;;45.90;23.63;;;8.80;99.90;;;;;;5106981;27;20055;-61
2022/12/22 03:53:59;;;;;;;40.50;22.90;;;8.90;99.90;;;;;;5123005;27;20031;-61
2022/12/22 03:56:24;;;;;;;41.40;23.80;;;8.80;99.90;;;;;;5123963;27;20110;-60
2022/12/22 03:58:50;;;;;;;47.13;23.33;;;8.80;99.90;;;;;;5130154;27;20038;-61
2022/12/22 04:01:16;;;;;;;42.47;23.77;;;8.80;99.90;;;;;;5121554;27;20028;-62
2022/12/22 04:03:41;;;;;;;42.85;23.33;;;8.80;99.90;;;;;;5132370;27;20049;-61
2022/12/22 04:06:07;;;;;;;47.35;24.88;;;8.80;99.90;;;;;;5105465;27;20553;-61
2022/12/22 04:08:33;;;;;;;41.15;22.92;;;8.80;99.90;;;;;;5100522;27;20100;-62
2022/12/22 04:13:43;;;;;;;47.42;22.98;;;8.80;99.90;;;;;;5123800;27;20047;-61
2022/12/22 04:16:08;;;;;;;44.58;23.33;;;8.80;99.90;;;;;;5126411;27;20043;-62
2022/12/22 04:18:34;;;;;;;44.70;23.95;;;8.80;99.90;;;;;;5112892;27;20158;-60
2022/12/22 04:21:00;;;;;;;43.20;23.23;;;8.80;99.90;;;;;;5130572;27;20563;-61
2022/12/22 04:23:26;;;;;;;42.03;23.38;;;8.80;99.90;;;;;;5125418;27;20417;-61
2022/12/22 04:25:51;;;;;;;45.13;24.10;;;8.80;99.90;;;;;;5086995;27;20050;-61
2022/12/22 04:28:17;;;;;;;43.30;23.77;;;8.80;99.90;;;;;;5130239;27;20477;-62
2022/12/22 04:30:42;;;;;;;41.42;23.20;;;8.80;99.90;;;;;;5097566;28;20454;-61
2022/12/22 04:33:08;;;;;;;41.17;23.13;;;8.80;99.90;;;;;;5124862;27;20027;-62
2022/12/22 04:35:34;;;;;;;43.65;23.25;;;8.80;99.90;;;;;;5119824;27;20089;-62
2022/12/22 04:37:59;;;;;;;45.63;23.25;;;8.80;99.90;;;;;;5116382;27;20039;-61
2022/12/22 04:40:25;;;;;;;42.97;23.67;;;8.80;99.90;;;;;;5124421;27;20071;-61
2022/12/22 04:42:50;;;;;;;41.95;24.70;;;8.80;99.90;;;;;;5123400;27;20155;-61
2022/12/22 04:45:16;;;;;;;46.47;24.60;;;8.80;99.90;;;;;;5122964;27;20039;-61
2022/12/22 04:47:41;;;;;;;42.13;23.73;;;8.80;99.90;;;;;;5116844;27;20036;-62
2022/12/22 04:50:07;;;;;;;43.70;22.55;;;8.80;99.90;;;;;;5122231;27;20043;-62
2022/12/22 04:52:33;;;;;;;43.47;23.70;;;8.80;99.90;;;;;;5112093;27;20540;-61
2022/12/22 04:54:59;;;;;;;40.38;22.83;;;8.80;99.90;;;;;;5118527;27;20127;-61
2022/12/22 04:57:24;;;;;;;40.72;22.85;;;8.80;99.90;;;;;;5125872;27;20092;-61
2022/12/22 04:59:50;;;;;;;40.72;22.02;;;8.80;99.90;;;;;;5114256;27;20134;-61
2022/12/22 05:02:15;;;;;;;42.30;22.60;;;8.80;99.90;;;;;;5129708;27;20126;-64
2022/12/22 05:04:41;;;;;;;45.35;22.92;;;8.80;99.90;;;;;;5131715;27;20192;-61
2022/12/22 05:07:07;;;;;;;40.10;23.30;;;8.80;99.90;;;;;;5102757;27;20039;-61
2022/12/22 05:09:33;;;;;;;42.78;23.75;;;8.80;99.90;;;;;;5130943;27;20031;-61
2022/12/22 05:11:59;;;;;;;41.53;22.70;;;8.80;99.90;;;;;;5105369;27;20057;-62
2022/12/22 05:14:24;;;;;;;40.72;23.08;;;8.80;99.90;;;;;;5093576;28;20393;-62
2022/12/22 05:16:50;;;;;;;42.67;23.85;;;8.80;99.90;;;;;;5112771;27;20082;-62
2022/12/22 05:19:16;;;;;;;43.78;23.58;;;8.80;99.90;;;;;;5100507;27;20042;-63
2022/12/22 05:21:41;;;;;;;42.60;23.70;;;8.80;99.90;;;;;;5117330;27;20031;-63
2022/12/22 05:24:07;;;;;;;44.67;23.58;;;8.80;99.90;;;;;;5102012;27;20489;-62
2022/12/22 05:26:33;;;;;;;41.40;22.02;;;8.80;99.90;;;;;;5130394;27;20039;-62
2022/12/22 05:28:59;;;;;;;45.53;22.85;;;8.80;99.90;;;;;;5125634;27;20042;-62
2022/12/22 05:31:25;;;;;;;44.22;22.83;;;8.90;99.90;;;;;;5118882;27;20042;-63
2022/12/22 05:33:51;;;;;;;41.70;21.98;;;8.90;99.90;;;;;;5119831;27;20057;-63
2022/12/22 05:36:16;;;;;;;39.75;21.38;;;8.80;99.90;;;;;;5120167;27;20489;-61
2022/12/22 05:38:43;;;;;;;46.35;22.45;;;8.80;99.90;;;;;;5118109;28;20417;-61
2022/12/22 05:41:09;;;;;;;44.53;22.33;;;8.80;99.90;;;;;;5123024;27;20035;-64
2022/12/22 05:43:35;;;;;;;43.40;21.98;;;8.80;99.90;;;;;;5124678;27;20036;-63
2022/12/22 05:46:07;;;;;;;44.67;22.15;;;8.80;99.90;;;;;;5084515;28;20027;-63
2022/12/22 05:48:33;;;;;;;49.58;21.85;;;8.80;99.90;;;;;;5127454;28;20031;-62
2022/12/22 05:50:58;;;;;;;47.83;21.23;;;8.80;99.90;;;;;;5123407;28;20088;-62
2022/12/22 05:53:24;;;;;;;50.42;21.85;;;8.80;99.90;;;;;;5124152;28;20043;-62
2022/12/22 05:55:51;;;;;;;56.00;22.52;;;8.80;99.90;;;;;;5097020;28;20101;-62
2022/12/22 05:58:17;;;;;;;49.13;22.42;;;8.80;99.90;;;;;;5130317;28;20560;-62
2022/12/22 06:00:42;;;;;;;54.88;21.45;;;8.80;99.90;;;;;;5130702;28;20038;-62
2022/12/22 06:03:08;;;;;;;53.20;23.02;;;8.80;99.90;;;;;;5124787;28;20059;-63
2022/12/22 06:05:34;;;;;;;58.13;22.15;;;8.80;99.90;;;;;;5127118;28;20497;-62
2022/12/22 06:07:59;;;;;;;55.67;24.08;;;8.80;99.90;;;;;;5102721;28;20035;-62
2022/12/22 06:10:25;;;;;;;61.00;23.33;;;8.80;99.90;;;;;;5126733;28;20119;-62
2022/12/22 06:12:50;;;;;;;57.80;23.88;;;8.80;99.90;;;;;;5108688;28;20036;-62
2022/12/22 06:15:16;;;;;;;57.20;23.20;;;8.80;99.90;;;;;;5120107;28;20039;-62
2022/12/22 06:17:42;;;;;;;60.75;23.45;;;8.80;99.90;;;;;;5113760;28;20062;-62
2022/12/22 06:20:08;;;;;;;70.65;25.10;;;8.80;99.90;;;;;;5115900;28;20059;-62
2022/12/22 06:22:34;;;;;;;76.45;25.10;;;8.80;99.90;;;;;;5110876;28;20054;-64
2022/12/22 06:25:00;;;;;;;79.50;25.35;;;8.80;99.90;;;;;;5130233;28;20050;-63
2022/12/22 06:27:27;;;;;;;82.45;26.63;;;8.80;99.90;;;;;;5111152;28;20114;-61
2022/12/22 06:29:52;;;;;;;89.03;27.55;;;8.80;99.90;;;;;;5105242;28;20034;-63
2022/12/22 06:32:18;;;;;;;83.40;26.38;;;8.80;99.90;;;;;;5129100;28;20035;-61
2022/12/22 06:34:43;;;;;;;94.03;28.65;;;8.80;99.90;;;;;;5111923;28;20058;-62
2022/12/22 06:37:09;;;;;;;87.97;27.80;;;8.80;99.90;;;;;;5111768;28;20047;-62
2022/12/22 06:39:35;;;;;;;86.75;28.85;;;8.70;99.90;;;;;;5129702;28;20042;-62
2022/12/22 06:44:45;;;;;;;77.60;27.58;;;8.70;99.90;;;;;;5123706;27;20039;-63
2022/12/22 06:47:10;;;;;;;71.43;26.52;;;8.70;99.90;;;;;;5130367;27;20489;-60
2022/12/22 06:49:36;;;;;;;73.10;26.42;;;8.70;99.90;;;;;;5120233;27;20035;-62
2022/12/22 06:52:01;;;;;;;64.53;25.55;;;8.50;99.90;;;;;;5121138;27;20111;-62
2022/12/22 06:54:27;;;;;;;66.68;25.70;;;8.50;99.90;;;;;;5109053;27;20050;-63
2022/12/22 06:56:52;;;;;;;65.47;24.58;;;8.50;99.90;;;;;;5128748;27;20039;-62
2022/12/22 06:59:18;;;;;;;60.78;24.63;;;8.40;99.90;;;;;;5126290;27;20051;-62
2022/12/22 07:01:44;;;;;;;58.88;23.00;;;8.40;99.90;;;;;;5114224;27;20511;-62
2022/12/22 07:04:09;;;;;;;52.95;21.33;;;8.30;99.90;;;;;;5111156;27;20043;-63
2022/12/22 07:06:36;;;;;;;58.90;22.73;;;8.20;99.90;;;;;;5132168;27;20114;-63
2022/12/22 07:09:02;;;;;;;64.82;21.75;;;8.10;99.90;;;;;;5113165;27;20100;-63
2022/12/22 07:11:27;;;;;;;65.10;21.48;;;8.10;99.90;;;;;;5132459;27;20043;-64
2022/12/22 07:13:54;;;;;;;49.15;19.17;;;8.10;99.90;;;;;;5132279;27;20054;-61
2022/12/22 07:16:19;;;;;;;56.72;18.92;;;7.90;99.90;;;;;;5113575;27;20091;-63
2022/12/22 07:18:45;;;;;;;51.63;19.27;;;7.80;99.90;;;;;;5131969;27;20440;-62
2022/12/22 07:21:13;;;;;;;94.97;19.63;;;7.80;99.90;;;;;;5131318;27;20023;-61
2022/12/22 07:23:39;;;;;;;54.70;17.75;;;7.70;99.90;;;;;;5125164;27;20085;-62
2022/12/22 07:26:06;;;;;;;47.28;17.70;;;7.70;99.90;;;;;;5128006;27;20044;-62
2022/12/22 07:28:34;;;;;;;54.35;19.73;;;7.60;99.90;;;;;;5101016;27;20042;-62
2022/12/22 07:31:00;;;;;;;58.35;20.45;;;7.60;99.90;;;;;;5113971;27;20041;-62
2022/12/22 07:33:25;;;;;;;47.70;19.05;;;7.60;99.90;;;;;;5118878;27;20035;-62
2022/12/22 07:36:11;;;;;;;51.45;20.50;;;7.70;99.90;;;;;;5120615;27;20117;-62
2022/12/22 07:38:43;;;;;;;50.78;18.65;;;7.70;99.90;;;;;;5099430;27;20091;-62
2022/12/22 07:43:57;;;;;;;59.33;19.35;;;7.80;99.90;;;;;;5122276;27;20265;-62
2022/12/22 07:46:25;;;;;;;74.70;20.08;;;7.80;99.90;;;;;;5128928;27;20031;-62
2022/12/22 07:51:37;;;;;;;54.53;18.98;;;7.80;99.90;;;;;;5121074;27;20035;-62
2022/12/22 07:54:07;;;;;;;47.35;17.80;;;7.80;99.90;;;;;;5128637;27;20100;-62
2022/12/22 07:56:33;;;;;;;87.78;19.40;;;7.70;99.90;;;;;;5120606;27;20450;-64
2022/12/22 07:58:58;;;;;;;56.20;18.27;;;7.70;99.90;;;;;;5129746;27;20039;-62
2022/12/22 08:01:24;;;;;;;49.55;18.85;;;7.70;99.90;;;;;;5128667;27;20039;-62
2022/12/22 08:03:53;;;;;;;44.72;16.92;;;7.70;99.90;;;;;;5130119;27;20042;-62
2022/12/22 08:06:19;;;;;;;51.20;16.65;;;7.70;99.90;;;;;;5114285;27;20123;-63
2022/12/22 08:08:45;;;;;;;47.88;16.30;;;7.60;99.90;;;;;;5129414;27;20089;-62
2022/12/22 08:11:10;;;;;;;43.58;15.57;;;7.60;99.90;;;;;;5122267;27;20557;-62
2022/12/22 08:13:36;;;;;;;43.97;16.30;;;7.50;99.90;;;;;;5109950;27;20038;-61
2022/12/22 08:16:07;;;;;;;48.33;15.65;;;7.50;99.90;;;;;;5111113;27;20088;-62
2022/12/22 08:18:34;;;;;;;53.00;16.55;;;7.50;99.90;;;;;;5122770;27;20047;-62
2022/12/22 08:20:59;;;;;;;53.70;17.35;;;7.50;99.90;;;;;;5113756;27;20043;-63
2022/12/22 08:23:25;;;;;;;43.17;16.20;;;7.50;99.90;;;;;;5121189;27;20101;-61
2022/12/22 08:26:10;;;;;;;44.38;14.18;;;7.50;99.90;;;;;;5109481;27;20043;-61
2022/12/22 08:28:50;;;;;;;43.63;13.25;;;7.50;99.90;;;;;;5101892;28;20402;-61
2022/12/22 08:31:16;;;;;;;41.70;11.98;;;7.50;99.90;;;;;;5127044;27;20032;-61
2022/12/22 08:33:42;;;;;;;34.58;12.70;;;7.50;99.90;;;;;;5124548;27;20031;-63
2022/12/22 08:36:09;;;;;;;43.03;12.55;;;7.40;99.90;;;;;;5112724;27;20529;-62
2022/12/22 08:38:38;;;;;;;48.47;12.57;;;7.40;99.90;;;;;;5123884;27;20039;-61
2022/12/22 08:41:04;;;;;;;33.47;11.90;;;7.40;99.90;;;;;;5114959;27;20090;-61
2022/12/22 08:43:31;;;;;;;35.05;13.90;;;7.40;99.90;;;;;;5112166;27;20516;-61
2022/12/22 08:45:57;;;;;;;37.00;13.27;;;7.50;99.90;;;;;;5122496;27;20039;-62
2022/12/22 08:48:23;;;;;;;36.75;12.07;;;7.50;99.90;;;;;;5120568;27;20080;-61
2022/12/22 08:50:48;;;;;;;45.97;13.15;;;7.50;99.90;;;;;;5130802;27;20434;-62
2022/12/22 08:53:14;;;;;;;38.42;12.65;;;7.50;99.90;;;;;;5099391;27;20549;-61
2022/12/22 08:55:40;;;;;;;46.92;13.55;;;7.50;99.90;;;;;;5131413;27;20035;-61
2022/12/22 08:58:06;;;;;;;46.13;12.50;;;7.50;99.90;;;;;;5120162;27;20035;-61
2022/12/22 09:00:31;;;;;;;42.08;12.38;;;7.50;99.90;;;;;;5115781;27;20101;-61
2022/12/22 09:02:57;;;;;;;39.20;12.05;;;7.50;99.90;;;;;;5127608;27;20581;-61
2022/12/22 09:05:23;;;;;;;44.88;12.90;;;7.50;99.90;;;;;;5125366;27;20078;-62
2022/12/22 09:07:48;;;;;;;46.58;13.02;;;7.40;99.90;;;;;;5095288;28;20147;-61
2022/12/22 09:10:14;;;;;;;52.40;13.75;;;7.40;99.90;;;;;;5121697;27;20779;-61
2022/12/22 09:12:43;;;;;;;53.35;13.82;;;7.40;99.90;;;;;;5120518;27;20039;-61
2022/12/22 09:15:08;;;;;;;52.03;13.77;;;7.40;99.90;;;;;;5101853;28;20031;-61
2022/12/22 09:17:35;;;;;;;62.33;14.65;;;7.40;99.90;;;;;;5111310;27;20174;-62
2022/12/22 09:20:01;;;;;;;39.67;13.88;;;7.40;99.90;;;;;;5129074;27;20039;-62
2022/12/22 09:22:27;;;;;;;61.28;14.25;;;7.50;99.90;;;;;;5109683;27;20042;-62
2022/12/22 09:24:53;;;;;;;44.38;14.27;;;7.40;99.90;;;;;;5104721;27;20035;-61
2022/12/22 09:27:18;;;;;;;49.05;14.40;;;7.40;99.90;;;;;;5131135;27;20072;-61
2022/12/22 09:29:44;;;;;;;55.58;13.27;;;7.40;99.90;;;;;;5093630;28;20038;-61
2022/12/22 09:32:09;;;;;;;31.98;12.23;;;7.40;99.90;;;;;;5120433;27;20031;-62
2022/12/22 09:34:35;;;;;;;37.60;12.88;;;7.40;99.90;;;;;;5116513;27;20035;-61
2022/12/22 09:37:01;;;;;;;34.45;12.60;;;7.40;99.90;;;;;;5117146;28;20031;-61
2022/12/22 09:39:27;;;;;;;43.13;13.15;;;7.30;99.90;;;;;;5118890;27;20046;-62
2022/12/22 09:41:54;;;;;;;46.88;13.68;;;7.30;99.90;;;;;;5111845;27;20050;-61
2022/12/22 09:44:43;;;;;;;34.40;10.85;;;7.30;99.90;;;;;;5110026;28;20043;-61
2022/12/22 09:47:19;;;;;;;27.63;10.02;;;7.30;99.90;;;;;;5126069;28;20035;-61
2022/12/22 09:49:45;;;;;;;30.48;10.30;;;7.30;99.90;;;;;;5108661;28;20043;-61
2022/12/22 09:52:33;;;;;;;28.33;10.10;;;7.20;99.90;;;;;;5129626;28;20038;-61
2022/12/22 09:55:04;;;;;;;26.92;10.30;;;7.20;99.90;;;;;;5124608;28;20039;-61
2022/12/22 09:57:31;;;;;;;28.13;9.60;;;7.20;99.90;;;;;;5123305;28;20445;-62
2022/12/22 10:00:05;;;;;;;21.98;8.95;;;7.20;99.90;;;;;;5118066;28;20040;-61
2022/12/22 10:02:42;;;;;;;20.50;8.68;;;7.30;99.90;;;;;;5121822;28;20031;-61
2022/12/22 10:05:27;;;;;;;21.73;8.20;;;7.20;99.90;;;;;;5094860;28;20040;-61
2022/12/22 10:07:57;;;;;;;16.77;7.70;;;7.20;99.90;;;;;;5135153;27;20055;-63
2022/12/22 10:10:27;;;;;;;15.57;7.38;;;7.20;99.90;;;;;;5095150;28;20036;-62
2022/12/22 10:13:03;;;;;;;19.13;7.45;;;7.20;99.90;;;;;;5131120;28;20035;-62
2022/12/22 10:15:39;;;;;;;20.30;7.40;;;7.20;99.90;;;;;;5126777;27;20036;-62
2022/12/22 10:18:15;;;;;;;23.17;7.65;;;7.20;99.90;;;;;;5132490;27;20176;-63
2022/12/22 10:20:44;;;;;;;16.45;6.20;;;7.20;99.90;;;;;;5134706;27;20488;-63
2022/12/22 10:23:27;;;;;;;18.08;6.97;;;7.20;99.90;;;;;;5127226;27;20028;-64
2022/12/22 10:25:56;;;;;;;13.02;6.93;;;7.20;99.90;;;;;;5129503;27;20120;-63
2022/12/22 10:28:25;;;;;;;16.30;6.75;;;7.20;99.90;;;;;;5123278;27;20493;-62
2022/12/22 10:31:22;;;;;;;15.13;6.80;;;7.20;99.90;;;;;;5124073;27;20109;-62
2022/12/22 10:33:51;;;;;;;16.98;6.60;;;7.10;99.90;;;;;;5124197;27;20043;-63
2022/12/22 10:36:27;;;;;;;16.80;7.35;;;7.20;99.90;;;;;;5125674;27;20031;-63
2022/12/22 10:39:17;;;;;;;19.45;7.45;;;7.20;99.90;;;;;;5104414;27;20062;-63
2022/12/22 10:41:47;;;;;;;17.17;7.75;;;7.20;99.90;;;;;;5127563;27;20401;-62
2022/12/22 10:44:12;;;;;;;19.02;8.75;;;7.20;99.90;;;;;;5128049;27;20054;-63
2022/12/22 10:46:45;;;;;;;21.05;8.63;;;7.20;99.90;;;;;;5129922;27;20517;-63
2022/12/22 10:49:34;;;;;;;23.90;9.13;;;7.30;99.90;;;;;;5134936;27;20042;-63
2022/12/22 10:52:19;;;;;;;21.77;9.27;;;7.30;99.90;;;;;;5131079;27;20122;-63
2022/12/22 10:54:45;;;;;;;24.40;9.25;;;7.30;99.90;;;;;;5127778;27;20043;-63
2022/12/22 10:57:15;;;;;;;23.73;9.30;;;7.40;99.90;;;;;;5120576;27;20039;-63
2022/12/22 11:00:00;;;;;;;23.95;9.05;;;7.40;99.90;;;;;;5117111;27;20050;-63
2022/12/22 11:02:36;;;;;;;27.92;10.27;;;7.50;99.90;;;;;;5133514;27;20065;-63
2022/12/22 11:05:10;;;;;;;24.75;10.30;;;7.60;99.90;;;;;;5120443;27;20075;-62
2022/12/22 11:07:41;;;;;;;29.33;10.68;;;7.60;99.90;;;;;;5128180;27;20035;-63
2022/12/22 11:10:17;;;;;;;25.98;10.35;;;7.60;99.90;;;;;;5128825;27;20067;-63
2022/12/22 11:13:14;;;;;;;22.02;9.48;;;7.60;99.90;;;;;;5094806;28;20043;-63
2022/12/22 11:15:44;;;;;;;28.00;11.52;;;7.60;99.90;;;;;;5123527;27;20044;-63
2022/12/22 11:18:21;;;;;;;27.10;11.07;;;7.60;99.90;;;;;;5121766;27;20039;-63
2022/12/22 11:21:13;;;;;;;26.30;10.77;;;7.60;99.90;;;;;;5124405;27;20047;-61
2022/12/22 11:24:03;;;;;;;29.83;11.93;;;7.60;99.90;;;;;;5134619;27;20050;-62
2022/12/22 11:26:42;;;;;;;28.70;11.02;;;7.70;99.90;;;;;;5130792;27;20130;-63
2022/12/22 11:29:20;;;;;;;28.25;11.77;;;7.70;99.90;;;;;;5116537;27;20550;-65
2022/12/22 11:32:04;;;;;;;30.08;11.10;;;7.70;99.90;;;;;;5119662;27;20035;-63
2022/12/22 11:34:48;;;;;;;28.70;11.07;;;7.80;99.90;;;;;;5113437;27;20038;-63
2022/12/22 11:37:41;;;;;;;31.70;11.90;;;7.80;99.90;;;;;;5132541;27;20400;-63
2022/12/22 11:40:25;;;;;;;24.38;10.02;;;7.80;99.90;;;;;;5127109;27;20073;-63
2022/12/22 11:43:21;;;;;;;27.50;10.80;;;7.90;99.90;;;;;;5112534;28;20036;-62
2022/12/22 11:45:49;;;;;;;27.98;10.18;;;7.90;99.90;;;;;;5130817;27;20043;-63
2022/12/22 11:48:24;;;;;;;28.02;9.35;;;8.00;99.90;;;;;;5131764;27;20453;-62
2022/12/22 11:51:04;;;;;;;21.70;8.90;;;8.00;99.90;;;;;;5129969;27;20066;-63
2022/12/22 11:54:07;;;;;;;23.48;9.27;;;8.10;99.90;;;;;;5118336;27;20117;-63
2022/12/22 11:56:44;;;;;;;;;;;8.10;99.90;;;;;;5119312;27;20040;-63
2022/12/22 11:59:43;;;;;;;23.45;8.60;;;8.70;99.90;;;;;;5122963;27;19915;-63
2022/12/22 12:02:34;;;;;;;26.58;9.07;;;8.30;99.90;;;;;;5127038;27;20031;-63
2022/12/22 12:05:20;;;;;;;24.88;10.30;;;8.50;99.90;;;;;;5113769;27;20040;-61
2022/12/22 12:07:56;;;;;;;25.75;9.40;;;8.60;99.90;;;;;;5120461;27;20497;-63
2022/12/22 12:10:27;;;;;;;22.35;9.75;;;8.80;99.90;;;;;;5104988;27;20039;-63
2022/12/22 12:13:16;;;;;;;25.88;9.85;;;8.90;99.90;;;;;;5122311;27;20031;-63
2022/12/22 12:16:04;;;;;;;21.17;9.60;;;9.00;99.90;;;;;;5128915;27;20067;-62
2022/12/22 12:18:44;;;;;;;28.50;9.90;;;9.20;99.90;;;;;;5124838;27;20047;-62
2022/12/22 12:21:35;;;;;;;29.48;10.60;;;9.30;99.90;;;;;;5123736;27;20035;-63
2022/12/22 12:24:25;;;;;;;22.77;9.75;;;9.30;99.90;;;;;;5130879;27;20047;-63
2022/12/22 12:27:08;;;;;;;30.35;10.23;;;9.50;99.90;;;;;;5128044;27;20039;-63
2022/12/22 12:29:40;;;;;;;25.25;8.98;;;9.60;99.90;;;;;;5118393;27;20454;-63
2022/12/22 12:32:08;;;;;;;22.03;8.77;;;9.70;99.90;;;;;;5112311;28;20391;-63
2022/12/22 12:34:38;;;;;;;25.65;9.70;;;9.80;99.90;;;;;;5095410;27;20364;-63
2022/12/22 12:37:19;;;;;;;22.60;8.73;;;9.90;99.90;;;;;;5117436;27;20413;-63
2022/12/22 12:40:12;;;;;;;19.80;7.85;;;9.90;99.90;;;;;;5113770;27;20122;-62
2022/12/22 12:42:44;;;;;;;25.27;9.38;;;9.90;99.90;;;;;;5092527;27;20101;-63
2022/12/22 12:45:33;;;;;;;19.77;8.40;;;10.10;99.90;;;;;;5108451;28;20043;-63
2022/12/22 12:48:21;;;;;;;24.65;8.30;;;10.20;99.90;;;;;;5128387;27;20300;-62
2022/12/22 12:50:51;;;;;;;24.10;8.48;;;10.40;99.90;;;;;;5118621;27;20088;-63
2022/12/22 12:53:18;;;;;;;18.70;8.15;;;10.50;99.90;;;;;;5124941;27;20042;-63
2022/12/22 12:55:53;;;;;;;18.67;8.00;;;10.70;99.90;;;;;;5118792;27;20043;-61
2022/12/22 12:58:49;;;;;;;17.73;7.32;;;10.60;99.90;;;;;;5118392;27;20043;-63
2022/12/22 13:01:18;;;;;;;18.92;7.40;;;10.70;99.90;;;;;;5086475;28;20043;-62
2022/12/22 13:03:43;;;;;;;17.83;6.72;;;10.70;99.90;;;;;;5122951;27;20039;-61
2022/12/22 13:06:30;;;;;;;21.23;7.47;;;10.70;99.90;;;;;;5121430;27;20130;-62
2022/12/22 13:09:05;;;;;;;15.82;6.40;;;10.70;99.90;;;;;;5123573;27;20505;-63
2022/12/22 13:11:36;;;;;;;16.45;6.85;;;10.80;99.90;;;;;;5128675;27;20046;-63
2022/12/22 13:14:02;;;;;;;18.08;6.30;;;10.90;99.90;;;;;;5120291;27;20095;-62
2022/12/22 13:16:30;;;;;;;14.48;6.13;;;11.00;99.90;;;;;;5118650;27;20123;-61
2022/12/22 13:18:58;;;;;;;16.70;6.82;;;11.20;99.90;;;;;;5121394;27;20420;-63
2022/12/22 13:21:27;;;;;;;14.75;6.60;;;11.20;99.90;;;;;;5116261;27;20058;-63
2022/12/22 13:24:04;;;;;;;10.98;5.82;;;11.30;99.90;;;;;;5125708;27;20046;-62
2022/12/22 13:26:36;;;;;;;14.85;6.60;;;11.20;99.90;;;;;;5121369;27;20042;-63
2022/12/22 13:29:10;;;;;;;19.15;5.90;;;11.20;99.90;;;;;;5131161;27;20043;-62
2022/12/22 13:31:43;;;;;;;12.30;4.72;;;10.90;99.90;;;;;;5129707;27;20035;-63
2022/12/22 13:34:32;;;;;;;14.27;5.07;;;10.60;99.90;;;;;;5127443;27;20039;-62
2022/12/22 13:37:01;;;;;;;11.35;5.28;;;10.20;99.90;;;;;;5068429;27;20408;-63
2022/12/22 13:39:26;;;;;;;11.88;4.70;;;9.90;99.90;;;;;;5120118;27;20096;-61
2022/12/22 13:41:54;;;;;;;13.45;4.70;;;9.70;99.90;;;;;;5130814;27;20031;-61
2022/12/22 13:44:28;;;;;;;11.90;4.88;;;9.60;99.90;;;;;;5106545;28;20047;-62
2022/12/22 13:47:00;;;;;;;8.88;4.95;;;9.60;99.90;;;;;;5123444;28;20096;-62
2022/12/22 13:49:27;;;;;;;;;;;9.50;99.90;;;;;;5125349;27;20043;-63
2022/12/22 13:51:52;;;;;;;16.63;5.32;;;9.50;99.90;;;;;;5119816;28;19923;-63
2022/12/22 13:54:31;;;;;;;12.07;4.45;;;9.50;99.90;;;;;;5122294;28;20393;-62
2022/12/22 13:56:58;;;;;;;11.30;4.78;;;9.70;99.90;;;;;;5109579;28;20045;-63
2022/12/22 13:59:38;;;;;;;10.40;4.53;;;9.90;99.90;;;;;;5107093;28;20058;-61
2022/12/22 14:02:10;;;;;;;17.90;6.53;;;9.90;99.90;;;;;;5124463;28;20162;-61
2022/12/22 14:04:37;;;;;;;;;;;9.60;99.90;;;;;;5123725;28;20039;-62
2022/12/22 14:07:18;;;;;;;10.45;5.38;;;9.40;99.90;;;;;;5125640;28;19926;-62
2022/12/22 14:09:55;;;;;;;13.63;5.13;;;9.30;99.90;;;;;;5121813;28;20034;-62
2022/12/22 14:12:35;;;;;;;13.77;5.40;;;9.10;99.90;;;;;;5120820;28;20038;-62
2022/12/22 14:15:02;;;;;;;12.75;5.22;;;9.00;99.90;;;;;;5090303;28;20059;-63
2022/12/22 14:17:30;;;;;;;12.13;5.00;;;9.00;99.90;;;;;;5126734;28;20051;-62
2022/12/22 14:19:58;;;;;;;11.23;5.03;;;9.00;99.90;;;;;;5116901;28;20042;-63
2022/12/22 14:22:33;;;;;;;14.45;5.25;;;9.00;99.90;;;;;;5119417;28;20039;-62
2022/12/22 14:25:06;;;;;;;18.55;5.88;;;8.90;99.90;;;;;;5125295;28;20035;-63
2022/12/22 14:27:34;;;;;;;;;;;8.80;99.90;;;;;;5126221;28;20095;-63
2022/12/22 14:30:03;;;;;;;13.82;5.75;;;8.80;99.90;;;;;;5110445;28;19915;-62
2022/12/22 14:32:39;;;;;;;15.30;5.85;;;8.80;99.90;;;;;;5126380;28;20035;-63
2022/12/22 14:35:19;;;;;;;11.45;4.88;;;8.80;99.90;;;;;;5123661;28;20035;-63
2022/12/22 14:38:05;;;;;;;12.52;5.32;;;8.70;99.90;;;;;;5127483;28;20103;-63
2022/12/22 14:40:42;;;;;;;14.07;6.13;;;8.70;99.90;;;;;;5126247;28;20046;-63
2022/12/22 14:43:16;;;;;;;17.92;6.18;;;8.70;99.90;;;;;;5114544;28;20144;-63
2022/12/22 14:45:42;;;;;;;13.18;6.05;;;8.70;99.90;;;;;;5117153;28;20043;-64
2022/12/22 14:48:15;;;;;;;14.85;5.95;;;8.60;99.90;;;;;;5121975;28;20031;-63
2022/12/22 14:50:49;;;;;;;14.18;6.15;;;8.60;99.90;;;;;;5117694;28;20517;-63
2022/12/22 14:53:23;;;;;;;13.63;6.07;;;8.60;99.90;;;;;;5114574;28;20110;-64
2022/12/22 14:55:50;;;;;;;13.55;6.10;;;8.60;99.90;;;;;;5099039;28;20092;-62
2022/12/22 14:58:24;;;;;;;14.30;6.18;;;8.50;99.90;;;;;;5131286;28;20102;-63
2022/12/22 15:01:12;;;;;;;14.23;6.20;;;8.50;99.90;;;;;;5118931;28;20030;-63
2022/12/22 15:03:39;;;;;;;13.57;5.97;;;8.50;99.90;;;;;;5128432;27;20067;-63
2022/12/22 15:06:35;;;;;;;12.38;6.38;;;8.50;99.90;;;;;;5123038;27;20122;-60
2022/12/22 15:09:05;;;;;;;14.98;7.00;;;8.50;99.90;;;;;;5110590;27;20055;-62
2022/12/22 15:11:32;;;;;;;17.40;6.88;;;8.50;99.90;;;;;;5134768;27;20122;-60
2022/12/22 15:13:58;;;;;;;13.23;6.63;;;8.60;99.90;;;;;;5114146;27;20050;-60
2022/12/22 15:16:24;;;;;;;14.55;7.40;;;8.50;99.90;;;;;;5125241;27;20579;-60
2022/12/22 15:18:51;;;;;;;16.90;7.82;;;8.50;99.90;;;;;;5104435;27;20115;-60
2022/12/22 15:21:19;;;;;;;18.17;8.65;;;8.50;99.90;;;;;;5118809;27;20102;-61
2022/12/22 15:23:45;;;;;;;16.58;8.65;;;8.50;99.90;;;;;;5125631;27;20107;-62
2022/12/22 15:26:11;;;;;;;15.45;9.40;;;8.50;99.90;;;;;;5111068;28;20032;-60
2022/12/22 15:28:37;;;;;;;15.32;9.50;;;8.50;99.90;;;;;;5104085;27;20150;-60
2022/12/22 15:31:10;;;;;;;21.58;11.07;;;8.40;99.90;;;;;;5131355;27;20039;-60
2022/12/22 15:33:36;;;;;;;17.35;10.70;;;8.40;99.90;;;;;;5128061;27;20476;-61
2022/12/22 15:36:02;;;;;;;19.88;11.43;;;8.40;99.90;;;;;;5128005;27;20043;-62
2022/12/22 15:38:27;;;;;;;18.65;11.10;;;8.40;99.90;;;;;;5134033;27;20039;-62
2022/12/22 15:40:53;;;;;;;20.63;10.90;;;8.40;99.90;;;;;;5101114;27;20050;-64
2022/12/22 15:43:19;;;;;;;19.85;12.52;;;8.30;99.90;;;;;;5089498;27;20075;-60
2022/12/22 15:45:45;;;;;;;18.55;11.10;;;8.30;99.90;;;;;;5104167;27;20039;-62
2022/12/22 15:48:24;;;;;;;23.40;12.60;;;8.30;99.90;;;;;;5106415;27;20031;-60
2022/12/22 15:50:50;;;;;;;23.77;13.00;;;8.30;99.90;;;;;;5111881;27;20497;-63
2022/12/22 15:53:18;;;;;;;23.52;13.43;;;8.30;99.90;;;;;;5128675;27;20118;-61
2022/12/22 15:55:47;;;;;;;22.98;12.77;;;8.30;99.90;;;;;;5111646;27;20062;-63
2022/12/22 15:58:17;;;;;;;26.00;12.65;;;8.20;99.90;;;;;;5126971;27;20454;-60
2022/12/22 16:00:43;;;;;;;21.35;11.68;;;8.30;99.90;;;;;;5123411;27;20443;-61
2022/12/22 16:03:10;;;;;;;22.10;11.75;;;8.20;99.90;;;;;;5127015;27;20095;-62
2022/12/22 16:05:35;;;;;;;19.88;11.75;;;8.20;99.90;;;;;;5130067;27;20396;-61
2022/12/22 16:08:02;;;;;;;19.77;10.88;;;8.20;99.90;;;;;;5130297;27;20084;-61
2022/12/22 16:10:30;;;;;;;22.65;11.23;;;8.20;99.90;;;;;;5129284;27;20114;-60
2022/12/22 16:12:59;;;;;;;21.90;10.80;;;8.10;99.90;;;;;;5129883;27;20088;-64
2022/12/22 16:15:30;;;;;;;22.08;11.38;;;8.10;99.90;;;;;;5123782;27;20118;-62
2022/12/22 16:17:57;;;;;;;21.58;11.15;;;8.10;99.90;;;;;;5125520;27;20070;-63
2022/12/22 16:20:24;;;;;;;26.30;11.70;;;8.10;99.90;;;;;;5132329;27;20049;-61
2022/12/22 16:22:51;;;;;;;21.55;11.80;;;8.00;99.90;;;;;;5132064;27;20039;-63
2022/12/22 16:25:28;;;;;;;25.77;12.52;;;8.00;99.90;;;;;;5120956;27;20594;-62
2022/12/22 16:27:54;;;;;;;25.73;13.18;;;7.90;99.90;;;;;;5114032;27;20043;-63
2022/12/22 16:30:23;;;;;;;25.73;13.48;;;7.90;99.90;;;;;;5115746;27;20088;-63
2022/12/22 16:32:49;;;;;;;24.25;13.30;;;7.90;99.90;;;;;;5130992;27;20546;-63
2022/12/22 16:35:18;;;;;;;29.40;13.65;;;7.90;99.90;;;;;;5128692;27;21301;-63
2022/12/22 16:37:44;;;;;;;23.50;13.70;;;7.80;99.90;;;;;;5123452;27;20103;-62
2022/12/22 16:40:11;;;;;;;28.75;14.20;;;7.80;99.90;;;;;;5112373;28;20063;-63